sensor_id;sensor_type;location;lat;lon;timestamp;pressure;altitude;pressure_sealevel;temperature;humidity
38466;BME280;24244;51.950;5.902;2023-02-15T00:00:29;102872.63;;;4.22;78.83
38466;BME280;24244;51.950;5.902;2023-02-15T00:02:56;102869.13;;;4.21;78.79
38466;BME280;24244;51.950;5.902;2023-02-15T00:05:23;102864.81;;;4.20;78.56
38466;BME280;24244;51.950;5.902;2023-02-15T00:07:50;102860.47;;;4.19;78.68
38466;BME280;24244;51.950;5.902;2023-02-15T00:10:17;102864.91;;;4.19;78.85
38466;BME280;24244;51.950;5.902;2023-02-15T00:12:46;102861.31;;;4.20;78.85
38466;BME280;24244;51.950;5.902;2023-02-15T00:15:13;102859.53;;;4.20;78.88
38466;BME280;24244;51.950;5.902;2023-02-15T00:17:40;102860.59;;;4.18;78.81
38466;BME280;24244;51.950;5.902;2023-02-15T00:20:08;102858.97;;;4.15;78.81
38466;BME280;24244;51.950;5.902;2023-02-15T00:22:35;102867.81;;;4.14;78.95
38466;BME280;24244;51.950;5.902;2023-02-15T00:25:02;102870.53;;;4.13;78.79
38466;BME280;24244;51.950;5.902;2023-02-15T00:27:28;102867.91;;;4.13;78.77
38466;BME280;24244;51.950;5.902;2023-02-15T00:29:57;102874.22;;;4.10;78.78
38466;BME280;24244;51.950;5.902;2023-02-15T00:32:23;102872.59;;;4.08;78.84
38466;BME280;24244;51.950;5.902;2023-02-15T00:34:50;102870.06;;;4.06;78.95
38466;BME280;24244;51.950;5.902;2023-02-15T00:37:17;102859.81;;;4.02;78.73
38466;BME280;24244;51.950;5.902;2023-02-15T00:39:45;102857.47;;;3.97;78.82
38466;BME280;24244;51.950;5.902;2023-02-15T00:42:12;102851.63;;;3.92;78.77
38466;BME280;24244;51.950;5.902;2023-02-15T00:44:39;102854.53;;;3.87;79.10
38466;BME280;24244;51.950;5.902;2023-02-15T00:47:07;102848.50;;;3.85;79.13
38466;BME280;24244;51.950;5.902;2023-02-15T00:49:34;102840.91;;;3.81;78.93
38466;BME280;24244;51.950;5.902;2023-02-15T00:52:00;102846.25;;;3.79;79.26
38466;BME280;24244;51.950;5.902;2023-02-15T00:54:27;102844.47;;;3.80;79.04
38466;BME280;24244;51.950;5.902;2023-02-15T00:56:54;102845.41;;;3.79;79.00
38466;BME280;24244;51.950;5.902;2023-02-15T00:59:21;102833.19;;;3.78;79.08
38466;BME280;24244;51.950;5.902;2023-02-15T01:01:49;102835.94;;;3.76;79.11
38466;BME280;24244;51.950;5.902;2023-02-15T01:04:18;102830.94;;;3.72;78.61
38466;BME280;24244;51.950;5.902;2023-02-15T01:06:44;102829.44;;;3.68;78.86
38466;BME280;24244;51.950;5.902;2023-02-15T01:09:12;102833.84;;;3.67;79.21
38466;BME280;24244;51.950;5.902;2023-02-15T01:11:40;102839.94;;;3.68;78.99
38466;BME280;24244;51.950;5.902;2023-02-15T01:14:06;102831.13;;;3.69;79.01
38466;BME280;24244;51.950;5.902;2023-02-15T01:16:34;102827.44;;;3.71;79.08
38466;BME280;24244;51.950;5.902;2023-02-15T01:19:01;102828.28;;;3.72;79.23
38466;BME280;24244;51.950;5.902;2023-02-15T01:21:30;102823.97;;;3.71;79.17
38466;BME280;24244;51.950;5.902;2023-02-15T01:24:00;102820.41;;;3.72;78.95
38466;BME280;24244;51.950;5.902;2023-02-15T01:26:28;102827.44;;;3.71;78.78
38466;BME280;24244;51.950;5.902;2023-02-15T01:28:55;102813.72;;;3.66;78.68
38466;BME280;24244;51.950;5.902;2023-02-15T01:31:22;102816.66;;;3.62;79.09
38466;BME280;24244;51.950;5.902;2023-02-15T01:33:49;102816.72;;;3.60;79.29
38466;BME280;24244;51.950;5.902;2023-02-15T01:36:16;102821.06;;;3.61;79.30
38466;BME280;24244;51.950;5.902;2023-02-15T01:38:45;102816.44;;;3.65;79.32
38466;BME280;24244;51.950;5.902;2023-02-15T01:41:12;102807.78;;;3.63;79.31
38466;BME280;24244;51.950;5.902;2023-02-15T01:43:55;102802.53;;;3.63;78.98
38466;BME280;24244;51.950;5.902;2023-02-15T01:46:26;102805.94;;;3.65;79.10
38466;BME280;24244;51.950;5.902;2023-02-15T01:48:57;102805.00;;;3.66;79.27
38466;BME280;24244;51.950;5.902;2023-02-15T01:51:29;102800.66;;;3.65;78.96
38466;BME280;24244;51.950;5.902;2023-02-15T01:54:02;102801.59;;;3.64;79.12
38466;BME280;24244;51.950;5.902;2023-02-15T01:56:31;102800.94;;;3.60;79.14
38466;BME280;24244;51.950;5.902;2023-02-15T01:59:03;102805.28;;;3.61;79.26
38466;BME280;24244;51.950;5.902;2023-02-15T02:01:32;102804.44;;;3.61;79.26
38466;BME280;24244;51.950;5.902;2023-02-15T02:04:05;102797.75;;;3.55;79.49
38466;BME280;24244;51.950;5.902;2023-02-15T02:06:37;102802.16;;;3.54;79.55
38466;BME280;24244;51.950;5.902;2023-02-15T02:09:07;102796.16;;;3.52;79.26
38466;BME280;24244;51.950;5.902;2023-02-15T02:11:34;102794.44;;;3.51;79.48
38466;BME280;24244;51.950;5.902;2023-02-15T02:14:01;102791.91;;;3.50;79.29
38466;BME280;24244;51.950;5.902;2023-02-15T02:16:34;102788.44;;;3.49;79.51
38466;BME280;24244;51.950;5.902;2023-02-15T02:19:38;102787.69;;;3.47;79.40
38466;BME280;24244;51.950;5.902;2023-02-15T02:22:28;102783.53;;;3.43;79.33
38466;BME280;24244;51.950;5.902;2023-02-15T02:25:17;102785.41;;;3.41;79.43
38466;BME280;24244;51.950;5.902;2023-02-15T02:27:57;102781.19;;;3.39;79.22
38466;BME280;24244;51.950;5.902;2023-02-15T02:30:48;102775.16;;;3.37;79.05
38466;BME280;24244;51.950;5.902;2023-02-15T02:33:41;102771.88;;;3.33;79.28
38466;BME280;24244;51.950;5.902;2023-02-15T02:36:15;102769.44;;;3.30;79.28
38466;BME280;24244;51.950;5.902;2023-02-15T02:38:58;102766.03;;;3.28;79.80
38466;BME280;24244;51.950;5.902;2023-02-15T02:41:44;102766.88;;;3.29;79.50
38466;BME280;24244;51.950;5.902;2023-02-15T02:44:16;102767.94;;;3.26;79.57
38466;BME280;24244;51.950;5.902;2023-02-15T02:46:50;102759.28;;;3.24;79.44
38466;BME280;24244;51.950;5.902;2023-02-15T02:49:30;102764.53;;;3.24;79.56
38466;BME280;24244;51.950;5.902;2023-02-15T02:52:00;102753.25;;;3.22;79.21
38466;BME280;24244;51.950;5.902;2023-02-15T02:54:28;102756.81;;;3.21;79.55
38466;BME280;24244;51.950;5.902;2023-02-15T02:56:59;102747.34;;;3.19;79.31
38466;BME280;24244;51.950;5.902;2023-02-15T02:59:31;102745.72;;;3.16;79.44
38466;BME280;24244;51.950;5.902;2023-02-15T03:02:04;102746.00;;;3.11;79.50
38466;BME280;24244;51.950;5.902;2023-02-15T03:04:38;102737.44;;;3.08;79.16
38466;BME280;24244;51.950;5.902;2023-02-15T03:07:12;102747.09;;;3.07;79.12
38466;BME280;24244;51.950;5.902;2023-02-15T03:09:43;102745.34;;;3.08;79.75
38466;BME280;24244;51.950;5.902;2023-02-15T03:12:14;102738.28;;;3.08;79.31
38466;BME280;24244;51.950;5.902;2023-02-15T03:14:46;102732.38;;;3.05;79.21
38466;BME280;24244;51.950;5.902;2023-02-15T03:17:16;102732.56;;;3.02;79.24
38466;BME280;24244;51.950;5.902;2023-02-15T03:19:46;102735.47;;;2.97;79.59
38466;BME280;24244;51.950;5.902;2023-02-15T03:22:17;102733.75;;;2.96;79.40
38466;BME280;24244;51.950;5.902;2023-02-15T03:24:55;102730.44;;;2.93;79.33
38466;BME280;24244;51.950;5.902;2023-02-15T03:27:24;102727.09;;;2.91;79.41
38466;BME280;24244;51.950;5.902;2023-02-15T03:29:55;102721.00;;;2.90;79.59
38466;BME280;24244;51.950;5.902;2023-02-15T03:32:25;102716.66;;;2.89;79.68
38466;BME280;24244;51.950;5.902;2023-02-15T03:34:55;102716.66;;;2.89;79.26
38466;BME280;24244;51.950;5.902;2023-02-15T03:37:28;102709.72;;;2.88;79.21
38466;BME280;24244;51.950;5.902;2023-02-15T03:40:00;102708.94;;;2.86;79.54
38466;BME280;24244;51.950;5.902;2023-02-15T03:42:55;102712.44;;;2.87;79.52
38466;BME280;24244;51.950;5.902;2023-02-15T03:45:28;102707.94;;;2.89;79.72
38466;BME280;24244;51.950;5.902;2023-02-15T03:47:58;102709.63;;;2.90;79.24
38466;BME280;24244;51.950;5.902;2023-02-15T03:50:30;102704.38;;;2.90;79.75
38466;BME280;24244;51.950;5.902;2023-02-15T03:53:18;102708.59;;;2.92;79.73
38466;BME280;24244;51.950;5.902;2023-02-15T03:55:48;102700.91;;;2.89;79.22
38466;BME280;24244;51.950;5.902;2023-02-15T03:58:15;102703.63;;;2.88;79.70
38466;BME280;24244;51.950;5.902;2023-02-15T04:01:06;102700.06;;;2.89;79.74
38466;BME280;24244;51.950;5.902;2023-02-15T04:03:59;102693.88;;;2.90;79.47
38466;BME280;24244;51.950;5.902;2023-02-15T04:06:28;102698.19;;;2.91;79.51
38466;BME280;24244;51.950;5.902;2023-02-15T04:08:55;102694.63;;;2.92;79.48
38466;BME280;24244;51.950;5.902;2023-02-15T04:11:40;102694.72;;;2.90;79.83
38466;BME280;24244;51.950;5.902;2023-02-15T04:14:07;102699.22;;;2.88;79.59
38466;BME280;24244;51.950;5.902;2023-02-15T04:16:53;102697.53;;;2.87;79.61
38466;BME280;24244;51.950;5.902;2023-02-15T04:19:20;102693.88;;;2.90;79.71
38466;BME280;24244;51.950;5.902;2023-02-15T04:22:07;102692.19;;;2.89;79.77
38466;BME280;24244;51.950;5.902;2023-02-15T04:24:52;102697.44;;;2.89;80.08
38466;BME280;24244;51.950;5.902;2023-02-15T04:27:41;102691.25;;;2.90;79.86
38466;BME280;24244;51.950;5.902;2023-02-15T04:30:10;102689.34;;;2.92;80.02
38466;BME280;24244;51.950;5.902;2023-02-15T04:32:38;102687.69;;;2.91;79.33
38466;BME280;24244;51.950;5.902;2023-02-15T04:35:06;102691.97;;;2.92;79.53
38466;BME280;24244;51.950;5.902;2023-02-15T04:37:35;102691.16;;;2.91;79.93
38466;BME280;24244;51.950;5.902;2023-02-15T04:40:02;102693.88;;;2.90;79.57
38466;BME280;24244;51.950;5.902;2023-02-15T04:42:32;102699.13;;;2.90;80.05
38466;BME280;24244;51.950;5.902;2023-02-15T04:44:59;102687.69;;;2.91;79.68
38466;BME280;24244;51.950;5.902;2023-02-15T04:47:26;102690.31;;;2.91;79.43
38466;BME280;24244;51.950;5.902;2023-02-15T04:49:54;102689.56;;;2.89;79.81
38466;BME280;24244;51.950;5.902;2023-02-15T04:52:23;102687.78;;;2.89;79.86
38466;BME280;24244;51.950;5.902;2023-02-15T04:54:51;102684.38;;;2.87;79.67
38466;BME280;24244;51.950;5.902;2023-02-15T04:57:18;102681.00;;;2.85;79.56
38466;BME280;24244;51.950;5.902;2023-02-15T04:59:45;102685.41;;;2.85;79.77
38466;BME280;24244;51.950;5.902;2023-02-15T05:02:12;102684.59;;;2.84;79.83
38466;BME280;24244;51.950;5.902;2023-02-15T05:04:40;102675.00;;;2.83;79.66
38466;BME280;24244;51.950;5.902;2023-02-15T05:07:07;102676.88;;;2.81;79.96
38466;BME280;24244;51.950;5.902;2023-02-15T05:09:34;102677.78;;;2.80;79.85
38466;BME280;24244;51.950;5.902;2023-02-15T05:12:02;102679.00;;;2.74;79.53
38466;BME280;24244;51.950;5.902;2023-02-15T05:14:29;102680.09;;;2.70;79.81
38466;BME280;24244;51.950;5.902;2023-02-15T05:16:56;102676.75;;;2.68;79.77
38466;BME280;24244;51.950;5.902;2023-02-15T05:19:27;102674.19;;;2.67;79.82
38466;BME280;24244;51.950;5.902;2023-02-15T05:21:54;102666.47;;;2.64;80.00
38466;BME280;24244;51.950;5.902;2023-02-15T05:24:21;102662.19;;;2.63;80.09
38466;BME280;24244;51.950;5.902;2023-02-15T05:27:07;102667.53;;;2.61;80.23
38466;BME280;24244;51.950;5.902;2023-02-15T05:29:55;102665.81;;;2.60;79.98
38466;BME280;24244;51.950;5.902;2023-02-15T05:32:22;102664.13;;;2.59;80.25
38466;BME280;24244;51.950;5.902;2023-02-15T05:34:51;102664.97;;;2.60;79.68
38466;BME280;24244;51.950;5.902;2023-02-15T05:37:18;102662.28;;;2.61;80.15
38466;BME280;24244;51.950;5.902;2023-02-15T05:39:45;102659.66;;;2.61;80.17
38466;BME280;24244;51.950;5.902;2023-02-15T05:42:13;102653.56;;;2.61;79.74
38466;BME280;24244;51.950;5.902;2023-02-15T05:44:40;102647.38;;;2.62;80.10
38466;BME280;24244;51.950;5.902;2023-02-15T05:47:07;102650.91;;;2.61;79.68
38466;BME280;24244;51.950;5.902;2023-02-15T05:49:34;102650.06;;;2.60;79.79
38466;BME280;24244;51.950;5.902;2023-02-15T05:52:03;102652.78;;;2.59;79.86
38466;BME280;24244;51.950;5.902;2023-02-15T05:54:30;102652.88;;;2.57;79.94
38466;BME280;24244;51.950;5.902;2023-02-15T05:56:57;102653.78;;;2.56;79.90
38466;BME280;24244;51.950;5.902;2023-02-15T05:59:25;102651.16;;;2.56;79.74
38466;BME280;24244;51.950;5.902;2023-02-15T06:01:52;102660.75;;;2.57;79.86
38466;BME280;24244;51.950;5.902;2023-02-15T06:04:20;102656.34;;;2.58;79.97
38466;BME280;24244;51.950;5.902;2023-02-15T06:06:47;102656.41;;;2.56;79.75
38466;BME280;24244;51.950;5.902;2023-02-15T06:09:14;102663.56;;;2.54;80.06
38466;BME280;24244;51.950;5.902;2023-02-15T06:11:41;102653.22;;;2.51;79.96
38466;BME280;24244;51.950;5.902;2023-02-15T06:14:08;102661.28;;;2.48;79.80
38466;BME280;24244;51.950;5.902;2023-02-15T06:16:36;102666.53;;;2.48;79.86
38466;BME280;24244;51.950;5.902;2023-02-15T06:19:03;102666.63;;;2.47;80.29
38466;BME280;24244;51.950;5.902;2023-02-15T06:21:31;102671.88;;;2.47;80.14
38466;BME280;24244;51.950;5.902;2023-02-15T06:23:57;102665.84;;;2.45;80.06
38466;BME280;24244;51.950;5.902;2023-02-15T06:26:25;102662.38;;;2.44;79.60
38466;BME280;24244;51.950;5.902;2023-02-15T06:28:56;102669.47;;;2.42;80.37
38466;BME280;24244;51.950;5.902;2023-02-15T06:31:22;102665.09;;;2.43;79.86
38466;BME280;24244;51.950;5.902;2023-02-15T06:33:51;102663.31;;;2.43;80.52
38466;BME280;24244;51.950;5.902;2023-02-15T06:36:18;102661.53;;;2.44;79.86
38466;BME280;24244;51.950;5.902;2023-02-15T06:38:45;102662.47;;;2.43;79.92
38466;BME280;24244;51.950;5.902;2023-02-15T06:41:12;102661.59;;;2.42;80.19
38466;BME280;24244;51.950;5.902;2023-02-15T06:43:40;102666.97;;;2.41;80.08
38466;BME280;24244;51.950;5.902;2023-02-15T06:46:07;102673.22;;;2.38;79.80
38466;BME280;24244;51.950;5.902;2023-02-15T06:48:35;102671.59;;;2.35;80.06
38466;BME280;24244;51.950;5.902;2023-02-15T06:51:03;102671.59;;;2.35;80.14
38466;BME280;24244;51.950;5.902;2023-02-15T06:53:30;102663.06;;;2.32;80.01
38466;BME280;24244;51.950;5.902;2023-02-15T06:56:00;102655.19;;;2.32;80.34
38466;BME280;24244;51.950;5.902;2023-02-15T06:58:29;102662.16;;;2.33;79.89
38466;BME280;24244;51.950;5.902;2023-02-15T07:00:56;102654.28;;;2.33;79.93
38466;BME280;24244;51.950;5.902;2023-02-15T07:03:23;102650.72;;;2.34;80.13
38466;BME280;24244;51.950;5.902;2023-02-15T07:05:54;102643.66;;;2.34;80.18
38466;BME280;24244;51.950;5.902;2023-02-15T07:08:22;102643.59;;;2.36;80.04
38466;BME280;24244;51.950;5.902;2023-02-15T07:10:50;102642.66;;;2.37;80.34
38466;BME280;24244;51.950;5.902;2023-02-15T07:13:18;102642.59;;;2.39;80.33
38466;BME280;24244;51.950;5.902;2023-02-15T07:15:49;102646.97;;;2.38;80.12
38466;BME280;24244;51.950;5.902;2023-02-15T07:18:16;102638.25;;;2.38;79.97
38466;BME280;24244;51.950;5.902;2023-02-15T07:20:42;102638.25;;;2.38;79.94
38466;BME280;24244;51.950;5.902;2023-02-15T07:23:09;102639.97;;;2.39;79.91
38466;BME280;24244;51.950;5.902;2023-02-15T07:25:38;102645.13;;;2.40;79.93
38466;BME280;24244;51.950;5.902;2023-02-15T07:28:04;102631.91;;;2.42;80.17
38466;BME280;24244;51.950;5.902;2023-02-15T07:30:31;102630.13;;;2.42;80.25
38466;BME280;24244;51.950;5.902;2023-02-15T07:32:59;102622.25;;;2.42;80.21
38466;BME280;24244;51.950;5.902;2023-02-15T07:35:49;102631.72;;;2.45;80.18
38466;BME280;24244;51.950;5.902;2023-02-15T07:38:16;102622.09;;;2.45;80.27
38466;BME280;24244;51.950;5.902;2023-02-15T07:40:45;102628.19;;;2.46;80.51
38466;BME280;24244;51.950;5.902;2023-02-15T07:43:12;102627.16;;;2.48;80.34
38466;BME280;24244;51.950;5.902;2023-02-15T07:45:40;102629.69;;;2.50;80.37
38466;BME280;24244;51.950;5.902;2023-02-15T07:48:07;102626.97;;;2.51;80.14
38466;BME280;24244;51.950;5.902;2023-02-15T07:50:34;102620.78;;;2.52;80.33
38466;BME280;24244;51.950;5.902;2023-02-15T07:53:01;102625.13;;;2.53;80.47
38466;BME280;24244;51.950;5.902;2023-02-15T07:55:28;102615.47;;;2.54;80.16
38466;BME280;24244;51.950;5.902;2023-02-15T07:57:57;102611.78;;;2.56;80.49
38466;BME280;24244;51.950;5.902;2023-02-15T08:00:24;102612.56;;;2.58;80.68
38466;BME280;24244;51.950;5.902;2023-02-15T08:02:53;102618.56;;;2.60;80.32
38466;BME280;24244;51.950;5.902;2023-02-15T08:05:40;102612.31;;;2.63;80.73
38466;BME280;24244;51.950;5.902;2023-02-15T08:08:08;102606.09;;;2.64;80.37
38466;BME280;24244;51.950;5.902;2023-02-15T08:11:00;102605.09;;;2.66;80.34
38466;BME280;24244;51.950;5.902;2023-02-15T08:13:50;102606.69;;;2.69;80.22
38466;BME280;24244;51.950;5.902;2023-02-15T08:16:24;102599.56;;;2.71;80.06
38466;BME280;24244;51.950;5.902;2023-02-15T08:18:53;102591.50;;;2.74;80.21
38466;BME280;24244;51.950;5.902;2023-02-15T08:21:20;102599.22;;;2.77;80.61
38466;BME280;24244;51.950;5.902;2023-02-15T08:23:50;102592.91;;;2.80;80.60
38466;BME280;24244;51.950;5.902;2023-02-15T08:26:17;102587.50;;;2.83;80.34
38466;BME280;24244;51.950;5.902;2023-02-15T08:28:44;102589.94;;;2.86;80.67
38466;BME280;24244;51.950;5.902;2023-02-15T08:31:15;102588.06;;;2.88;80.57
38466;BME280;24244;51.950;5.902;2023-02-15T08:33:46;102586.13;;;2.91;80.39
38466;BME280;24244;51.950;5.902;2023-02-15T08:36:16;102583.28;;;2.94;80.67
38466;BME280;24244;51.950;5.902;2023-02-15T08:38:45;102581.34;;;2.98;80.24
38466;BME280;24244;51.950;5.902;2023-02-15T08:41:14;102575.03;;;3.00;80.63
38466;BME280;24244;51.950;5.902;2023-02-15T08:43:57;102573.94;;;3.04;80.53
38466;BME280;24244;51.950;5.902;2023-02-15T08:46:27;102578.88;;;3.09;80.61
38466;BME280;24244;51.950;5.902;2023-02-15T08:48:55;102572.50;;;3.13;80.23
38466;BME280;24244;51.950;5.902;2023-02-15T08:51:23;102574.03;;;3.17;80.59
38466;BME280;24244;51.950;5.902;2023-02-15T08:53:52;102570.16;;;3.23;80.59
38466;BME280;24244;51.950;5.902;2023-02-15T08:56:21;102578.72;;;3.26;80.36
38466;BME280;24244;51.950;5.902;2023-02-15T08:58:49;102576.66;;;3.31;80.34
38466;BME280;24244;51.950;5.902;2023-02-15T09:01:17;102567.63;;;3.35;80.31
38466;BME280;24244;51.950;5.902;2023-02-15T09:03:48;102569.97;;;3.40;80.68
38466;BME280;24244;51.950;5.902;2023-02-15T09:06:18;102570.53;;;3.45;80.56
38466;BME280;24244;51.950;5.902;2023-02-15T09:08:46;102563.28;;;3.48;80.59
38466;BME280;24244;51.950;5.902;2023-02-15T09:11:15;102570.91;;;3.53;80.22
38466;BME280;24244;51.950;5.902;2023-02-15T09:13:51;102567.03;;;3.59;80.17
38466;BME280;24244;51.950;5.902;2023-02-15T09:16:20;102570.22;;;3.64;80.44
38466;BME280;24244;51.950;5.902;2023-02-15T09:18:49;102572.44;;;3.70;80.61
38466;BME280;24244;51.950;5.902;2023-02-15T09:21:20;102558.09;;;3.75;80.57
38466;BME280;24244;51.950;5.902;2023-02-15T09:23:49;102556.94;;;3.79;80.60
38466;BME280;24244;51.950;5.902;2023-02-15T09:26:18;102555.81;;;3.83;80.51
38466;BME280;24244;51.950;5.902;2023-02-15T09:28:46;102559.81;;;3.89;80.27
38466;BME280;24244;51.950;5.902;2023-02-15T09:31:14;102559.44;;;3.95;80.56
38466;BME280;24244;51.950;5.902;2023-02-15T09:33:44;102556.47;;;4.00;80.52
38466;BME280;24244;51.950;5.902;2023-02-15T09:36:17;102560.50;;;4.05;80.55
38466;BME280;24244;51.950;5.902;2023-02-15T09:38:45;102560.97;;;4.12;80.58
38466;BME280;24244;51.950;5.902;2023-02-15T09:44:12;102562.88;;;4.22;80.38
38466;BME280;24244;51.950;5.902;2023-02-15T09:46:53;102552.88;;;4.27;80.44
38466;BME280;24244;51.950;5.902;2023-02-15T09:49:31;102549.84;;;4.33;80.24
38466;BME280;24244;51.950;5.902;2023-02-15T09:52:37;102551.13;;;4.41;80.35
38466;BME280;24244;51.950;5.902;2023-02-15T09:55:18;102551.69;;;4.46;80.05
38466;BME280;24244;51.950;5.902;2023-02-15T09:57:54;102544.31;;;4.51;80.24
38466;BME280;24244;51.950;5.902;2023-02-15T10:00:30;102545.59;;;4.58;80.36
38466;BME280;24244;51.950;5.902;2023-02-15T10:03:25;102543.47;;;4.63;80.16
38466;BME280;24244;51.950;5.902;2023-02-15T10:06:12;102545.69;;;4.69;79.96
38466;BME280;24244;51.950;5.902;2023-02-15T10:09:02;102541.69;;;4.76;79.97
38466;BME280;24244;51.950;5.902;2023-02-15T10:11:43;102547.41;;;4.83;80.14
38466;BME280;24244;51.950;5.902;2023-02-15T10:14:38;102539.06;;;4.89;80.16
38466;BME280;24244;51.950;5.902;2023-02-15T10:17:16;102543.91;;;4.95;79.95
38466;BME280;24244;51.950;5.902;2023-02-15T10:19:55;102544.34;;;5.01;80.09
38466;BME280;24244;51.950;5.902;2023-02-15T10:22:35;102537.78;;;5.07;79.98
38466;BME280;24244;51.950;5.902;2023-02-15T10:25:20;102535.56;;;5.13;79.92
38466;BME280;24244;51.950;5.902;2023-02-15T10:27:49;102541.16;;;5.22;80.02
38466;BME280;24244;51.950;5.902;2023-02-15T10:30:22;102541.47;;;5.30;80.19
38466;BME280;24244;51.950;5.902;2023-02-15T10:32:58;102542.59;;;5.38;79.77
38466;BME280;24244;51.950;5.902;2023-02-15T10:35:33;102540.38;;;5.45;79.85
38466;BME280;24244;51.950;5.902;2023-02-15T10:38:10;102536.25;;;5.54;79.49
38466;BME280;24244;51.950;5.902;2023-02-15T10:40:56;102539.28;;;5.60;79.74
38466;BME280;24244;51.950;5.902;2023-02-15T10:43:59;102542.91;;;5.70;79.50
38466;BME280;24244;51.950;5.902;2023-02-15T10:46:47;102539.72;;;5.78;79.70
38466;BME280;24244;51.950;5.902;2023-02-15T10:49:35;102531.25;;;5.85;79.61
38466;BME280;24244;51.950;5.902;2023-02-15T10:52:18;102532.53;;;5.93;79.59
38466;BME280;24244;51.950;5.902;2023-02-15T10:54:55;102525.00;;;5.99;79.58
38466;BME280;24244;51.950;5.902;2023-02-15T10:57:35;102531.28;;;6.09;79.54
38466;BME280;24244;51.950;5.902;2023-02-15T11:00:12;102531.56;;;6.17;79.44
38466;BME280;24244;51.950;5.902;2023-02-15T11:02:49;102519.59;;;6.24;79.38
38466;BME280;24244;51.950;5.902;2023-02-15T11:05:33;102525.25;;;6.31;79.24
38466;BME280;24244;51.950;5.902;2023-02-15T11:08:06;102526.47;;;6.38;79.35
38466;BME280;24244;51.950;5.902;2023-02-15T11:10:38;102525.91;;;6.46;79.25
38466;BME280;24244;51.950;5.902;2023-02-15T11:13:10;102522.69;;;6.53;79.20
38466;BME280;24244;51.950;5.902;2023-02-15T11:15:41;102516.66;;;6.62;79.41
38466;BME280;24244;51.950;5.902;2023-02-15T11:18:14;102518.50;;;6.73;79.23
38466;BME280;24244;51.950;5.902;2023-02-15T11:20:45;102521.16;;;6.84;78.90
38466;BME280;24244;51.950;5.902;2023-02-15T11:23:16;102512.50;;;6.93;79.05
38466;BME280;24244;51.950;5.902;2023-02-15T11:25:50;102510.81;;;7.03;78.75
38466;BME280;24244;51.950;5.902;2023-02-15T11:28:26;102503.97;;;7.12;78.64
38466;BME280;24244;51.950;5.902;2023-02-15T11:30:55;102506.00;;;7.20;78.55
38466;BME280;24244;51.950;5.902;2023-02-15T11:33:26;102498.19;;;7.29;78.45
38466;BME280;24244;51.950;5.902;2023-02-15T11:36:00;102502.03;;;7.36;78.34
38466;BME280;24244;51.950;5.902;2023-02-15T11:38:31;102493.38;;;7.45;78.20
38466;BME280;24244;51.950;5.902;2023-02-15T11:41:02;102489.38;;;7.51;78.36
38466;BME280;24244;51.950;5.902;2023-02-15T11:43:35;102485.84;;;7.62;77.91
38466;BME280;24244;51.950;5.902;2023-02-15T11:46:05;102488.59;;;7.71;78.25
38466;BME280;24244;51.950;5.902;2023-02-15T11:48:38;102487.00;;;7.80;78.02
38466;BME280;24244;51.950;5.902;2023-02-15T11:51:12;102474.84;;;7.89;77.93
38466;BME280;24244;51.950;5.902;2023-02-15T11:53:40;102472.25;;;7.98;77.78
38466;BME280;24244;51.950;5.902;2023-02-15T11:56:13;102467.03;;;8.08;77.56
38466;BME280;24244;51.950;5.902;2023-02-15T11:58:45;102455.81;;;8.15;77.55
38466;BME280;24244;51.950;5.902;2023-02-15T12:01:16;102457.81;;;8.23;77.54
38466;BME280;24244;51.950;5.902;2023-02-15T12:03:47;102459.69;;;8.32;77.43
38466;BME280;24244;51.950;5.902;2023-02-15T12:06:26;102451.94;;;8.40;77.24
38466;BME280;24244;51.950;5.902;2023-02-15T12:09:01;102448.63;;;8.48;77.19
38466;BME280;24244;51.950;5.902;2023-02-15T12:11:33;102431.34;;;8.53;77.03
38466;BME280;24244;51.950;5.902;2023-02-15T12:14:04;102437.69;;;8.62;76.93
38466;BME280;24244;51.950;5.902;2023-02-15T12:16:34;102429.91;;;8.70;76.77
38466;BME280;24244;51.950;5.902;2023-02-15T12:19:17;102422.25;;;8.77;76.84
38466;BME280;24244;51.950;5.902;2023-02-15T12:21:50;102418.94;;;8.84;76.57
38466;BME280;24244;51.950;5.902;2023-02-15T12:24:20;102425.38;;;8.91;76.55
38466;BME280;24244;51.950;5.902;2023-02-15T12:26:56;102421.22;;;8.98;76.67
38466;BME280;24244;51.950;5.902;2023-02-15T12:29:30;102417.91;;;9.06;76.68
38466;BME280;24244;51.950;5.902;2023-02-15T12:31:58;102408.41;;;9.13;76.39
38466;BME280;24244;51.950;5.902;2023-02-15T12:34:30;102411.94;;;9.23;76.02
38466;BME280;24244;51.950;5.902;2023-02-15T12:37:00;102407.75;;;9.30;75.99
38466;BME280;24244;51.950;5.902;2023-02-15T12:39:29;102403.72;;;9.36;76.08
38466;BME280;24244;51.950;5.902;2023-02-15T12:41:59;102410.16;;;9.43;75.55
38466;BME280;24244;51.950;5.902;2023-02-15T12:44:30;102412.94;;;9.51;75.60
38466;BME280;24244;51.950;5.902;2023-02-15T12:47:01;102399.13;;;9.57;75.58
38466;BME280;24244;51.950;5.902;2023-02-15T12:49:29;102401.22;;;9.63;75.54
38466;BME280;24244;51.950;5.902;2023-02-15T12:51:59;102401.50;;;9.70;75.51
38466;BME280;24244;51.950;5.902;2023-02-15T12:54:32;102398.25;;;9.76;75.68
38466;BME280;24244;51.950;5.902;2023-02-15T12:57:14;102403.84;;;9.82;75.16
38466;BME280;24244;51.950;5.902;2023-02-15T12:59:49;102399.66;;;9.90;75.31
38466;BME280;24244;51.950;5.902;2023-02-15T13:02:21;102396.44;;;9.96;75.08
38466;BME280;24244;51.950;5.902;2023-02-15T13:04:49;102392.22;;;10.03;75.01
38466;BME280;24244;51.950;5.902;2023-02-15T13:07:18;102386.31;;;10.09;74.96
38466;BME280;24244;51.950;5.902;2023-02-15T13:09:45;102381.44;;;10.14;74.99
38466;BME280;24244;51.950;5.902;2023-02-15T13:12:18;102380.06;;;10.19;74.62
38466;BME280;24244;51.950;5.902;2023-02-15T13:14:49;102367.16;;;10.25;74.78
38466;BME280;24244;51.950;5.902;2023-02-15T13:17:21;102371.06;;;10.30;74.64
38466;BME280;24244;51.950;5.902;2023-02-15T13:19:52;102369.66;;;10.36;74.44
38466;BME280;24244;51.950;5.902;2023-02-15T13:22:27;102374.53;;;10.40;74.50
38466;BME280;24244;51.950;5.902;2023-02-15T13:25:04;102372.28;;;10.45;74.53
38466;BME280;24244;51.950;5.902;2023-02-15T13:27:37;102368.34;;;10.49;74.01